Time;durP1;ratioP1;P1;durP2;ratioP2;P2;SDS_P1;SDS_P2;PMS_P1;PMS_P2;Temp;Humidity;BMP_temperature;BMP_pressure;BME280_temperature;BME280_humidity;BME280_pressure;Samples;Min_cycle;Max_cycle;Signal;HPM_P1;HPM_P2
2022/01/01 00:01:41;;;;;;;32.40;9.93;;;;;;;;;;5038909;28;20025;-70
2022/01/01 00:04:09;;;;;;;43.78;14.02;;;;;;;;;;5038852;28;20042;-70
2022/01/01 00:06:36;;;;;;;42.17;12.15;;;;;;;;;;5038836;28;20029;-70
2022/01/01 00:09:07;;;;;;;38.72;11.80;;;;;;;;;;5037970;28;20409;-70
2022/01/01 00:11:35;;;;;;;38.45;12.50;;;;;;;;;;5038144;28;20029;-70
2022/01/01 00:14:02;;;;;;;33.15;11.85;;;;;;;;;;5038009;28;20097;-69
2022/01/01 00:16:33;;;;;;;36.17;12.82;;;;;;;;;;5038708;28;20014;-69
2022/01/01 00:19:03;;;;;;;26.98;10.45;;;;;;;;;;5038591;28;20076;-69
2022/01/01 00:21:31;;;;;;;32.95;10.75;;;;;;;;;;5038677;28;20023;-69
2022/01/01 00:23:59;;;;;;;28.23;9.98;;;;;;;;;;5038564;28;20074;-69
2022/01/01 00:26:26;;;;;;;20.27;7.25;;;;;;;;;;5037408;28;20095;-70
2022/01/01 00:28:53;;;;;;;15.90;6.57;;;;;;;;;;5038784;28;20025;-70
2022/01/01 00:31:28;;;;;;;12.93;4.40;;;;;;;;;;5038531;28;20043;-71
2022/01/01 00:33:59;;;;;;;13.20;4.60;;;;;;;;;;5037247;28;20418;-70
2022/01/01 00:36:29;;;;;;;13.38;4.10;;;;;;;;;;5038257;28;20097;-70
2022/01/01 00:38:56;;;;;;;11.70;2.50;;;;;;;;;;5038255;28;20025;-70
2022/01/01 00:41:24;;;;;;;10.43;2.75;;;;;;;;;;5038229;28;20028;-70
2022/01/01 00:43:52;;;;;;;11.15;2.30;;;;;;;;;;5038218;28;20037;-69
2022/01/01 00:46:19;;;;;;;10.10;3.00;;;;;;;;;;5038094;28;20035;-70
2022/01/01 00:48:45;;;;;;;8.02;2.05;;;;;;;;;;5037983;28;20560;-70
2022/01/01 00:51:12;;;;;;;11.55;2.17;;;;;;;;;;5036905;28;20033;-70
2022/01/01 00:53:39;;;;;;;14.13;2.85;;;;;;;;;;5037887;28;20437;-69
2022/01/01 00:56:07;;;;;;;8.48;2.20;;;;;;;;;;5037868;28;20025;-70
2022/01/01 00:58:34;;;;;;;7.30;1.92;;;;;;;;;;5037705;28;20026;-71
2022/01/01 01:01:02;;;;;;;5.90;1.77;;;;;;;;;;5037812;28;20076;-70
2022/01/01 01:03:30;;;;;;;7.20;1.80;;;;;;;;;;5037641;28;20411;-70
2022/01/01 01:05:59;;;;;;;7.93;2.00;;;;;;;;;;5036400;28;20422;-70
2022/01/01 01:08:27;;;;;;;7.88;1.35;;;;;;;;;;5036485;28;20495;-70
2022/01/01 01:10:57;;;;;;;11.20;2.05;;;;;;;;;;5037449;28;20040;-70
2022/01/01 01:13:28;;;;;;;5.53;1.42;;;;;;;;;;5036353;28;20025;-70
2022/01/01 01:15:56;;;;;;;9.32;1.50;;;;;;;;;;5038028;28;20048;-70
2022/01/01 01:18:23;;;;;;;8.75;1.67;;;;;;;;;;5036393;28;20483;-70
2022/01/01 01:20:51;;;;;;;8.73;1.30;;;;;;;;;;5036205;28;20026;-69
2022/01/01 01:23:18;;;;;;;5.88;0.88;;;;;;;;;;5036874;28;20199;-70
2022/01/01 01:25:46;;;;;;;9.88;1.00;;;;;;;;;;5037407;28;20040;-69
2022/01/01 01:28:14;;;;;;;5.75;1.00;;;;;;;;;;5037233;28;20025;-70
2022/01/01 01:30:42;;;;;;;9.05;1.08;;;;;;;;;;5035974;28;20025;-70
2022/01/01 01:33:10;;;;;;;6.68;0.98;;;;;;;;;;5037117;28;20045;-70
2022/01/01 01:35:38;;;;;;;6.45;1.23;;;;;;;;;;5036964;28;20028;-69
2022/01/01 01:38:06;;;;;;;9.90;1.17;;;;;;;;;;5037144;28;20018;-70
2022/01/01 01:40:33;;;;;;;8.75;0.90;;;;;;;;;;5036980;28;20025;-70
2022/01/01 01:43:08;;;;;;;4.95;1.42;;;;;;;;;;5035746;28;20025;-69
2022/01/01 01:45:36;;;;;;;9.18;2.08;;;;;;;;;;5036855;28;20100;-69
2022/01/01 01:48:02;;;;;;;5.05;1.90;;;;;;;;;;5036601;28;20031;-70
2022/01/01 01:50:35;;;;;;;9.05;1.83;;;;;;;;;;5036743;28;20040;-70
2022/01/01 01:53:06;;;;;;;20.10;5.13;;;;;;;;;;5036753;28;20025;-69
2022/01/01 01:55:34;;;;;;;35.15;9.05;;;;;;;;;;5036751;28;20029;-70
2022/01/01 01:58:02;;;;;;;52.25;18.05;;;;;;;;;;5036783;28;20024;-70
2022/01/01 02:03:12;;;;;;;90.32;38.75;;;;;;;;;;5036662;28;20025;-70
2022/01/01 02:05:40;;;;;;;65.05;32.38;;;;;;;;;;5035292;28;20140;-70
2022/01/01 02:08:09;;;;;;;70.57;31.63;;;;;;;;;;5036532;28;20135;-70
2022/01/01 02:10:38;;;;;;;71.97;31.27;;;;;;;;;;5036308;28;20025;-70
2022/01/01 02:13:12;;;;;;;44.53;20.70;;;;;;;;;;5035251;28;20029;-70
2022/01/01 02:18:13;;;;;;;86.20;36.65;;;;;;;;;;5036251;28;20026;-70
2022/01/01 02:20:41;;;;;;;78.32;34.65;;;;;;;;;;5036222;28;20083;-69
2022/01/01 02:23:13;;;;;;;58.80;27.73;;;;;;;;;;5036132;28;20299;-69
2022/01/01 02:25:41;;;;;;;31.10;13.48;;;;;;;;;;5036029;28;20030;-69
2022/01/01 02:28:15;;;;;;;29.23;13.73;;;;;;;;;;5036055;28;20100;-70
2022/01/01 02:30:42;;;;;;;35.72;15.25;;;;;;;;;;5036051;28;20025;-70
2022/01/01 02:33:09;;;;;;;30.77;14.38;;;;;;;;;;5036048;28;20033;-69
2022/01/01 02:35:37;;;;;;;33.40;13.40;;;;;;;;;;5034316;28;20338;-70
2022/01/01 02:38:07;;;;;;;32.85;14.30;;;;;;;;;;5035881;28;20100;-69
2022/01/01 02:40:36;;;;;;;39.50;17.95;;;;;;;;;;5034800;28;20044;-70
2022/01/01 02:43:03;;;;;;;37.03;17.00;;;;;;;;;;5035849;28;20029;-69
2022/01/01 02:45:31;;;;;;;45.15;17.65;;;;;;;;;;5035811;28;20068;-70
2022/01/01 02:47:59;;;;;;;37.85;15.30;;;;;;;;;;5035843;28;20434;-70
2022/01/01 02:50:26;;;;;;;33.35;12.75;;;;;;;;;;5034644;28;20438;-69
2022/01/01 02:52:53;;;;;;;20.95;8.65;;;;;;;;;;5035711;28;20137;-69
2022/01/01 02:55:21;;;;;;;24.00;8.88;;;;;;;;;;5036192;28;20151;-70
2022/01/01 02:57:56;;;;;;;21.08;8.82;;;;;;;;;;5035735;28;20334;-69
2022/01/01 03:00:23;;;;;;;23.75;9.10;;;;;;;;;;5035807;28;20414;-70
2022/01/01 03:02:51;;;;;;;22.58;8.77;;;;;;;;;;5035879;28;20144;-70
2022/01/01 03:05:18;;;;;;;31.92;11.45;;;;;;;;;;5035659;28;20014;-70
2022/01/01 03:07:46;;;;;;;43.92;18.75;;;;;;;;;;5035724;28;20097;-70
2022/01/01 03:10:16;;;;;;;35.25;13.13;;;;;;;;;;5035643;28;20092;-69
2022/01/01 03:12:44;;;;;;;42.55;18.42;;;;;;;;;;5035662;28;20056;-70
2022/01/01 03:15:11;;;;;;;49.97;22.77;;;;;;;;;;5035640;28;20405;-69
2022/01/01 03:17:39;;;;;;;56.17;26.92;;;;;;;;;;5035586;28;20028;-70
2022/01/01 03:20:07;;;;;;;52.15;20.85;;;;;;;;;;5035567;28;20018;-70
2022/01/01 03:22:34;;;;;;;58.35;22.42;;;;;;;;;;5035525;28;20040;-70
2022/01/01 03:25:02;;;;;;;56.83;24.30;;;;;;;;;;5035629;28;20048;-70
2022/01/01 03:27:30;;;;;;;70.85;27.90;;;;;;;;;;5034400;28;20033;-70
2022/01/01 03:29:57;;;;;;;70.10;28.20;;;;;;;;;;5034359;28;20026;-70
2022/01/01 03:32:28;;;;;;;67.32;29.95;;;;;;;;;;5034463;28;20026;-71
2022/01/01 03:34:56;;;;;;;69.30;28.98;;;;;;;;;;5035444;28;20022;-70
2022/01/01 03:37:23;;;;;;;65.95;29.50;;;;;;;;;;5035421;28;20025;-70
2022/01/01 03:39:51;;;;;;;68.90;30.30;;;;;;;;;;5035455;28;20029;-70
2022/01/01 03:42:19;;;;;;;83.57;38.05;;;;;;;;;;5035396;28;20083;-70
2022/01/01 03:44:46;;;;;;;100.68;41.00;;;;;;;;;;5034349;28;20054;-70
2022/01/01 03:47:14;;;;;;;90.97;40.20;;;;;;;;;;5037182;28;20553;-70
2022/01/01 03:49:41;;;;;;;79.47;36.78;;;;;;;;;;5038922;28;20053;-70
2022/01/01 03:52:07;;;;;;;83.18;39.80;;;;;;;;;;5039012;28;20030;-70
2022/01/01 03:54:35;;;;;;;93.07;45.80;;;;;;;;;;5037060;28;20049;-70
2022/01/01 03:57:02;;;;;;;102.50;51.60;;;;;;;;;;5020678;28;20029;-70
2022/01/01 03:59:30;;;;;;;104.63;50.13;;;;;;;;;;5020653;28;20041;-70
2022/01/01 04:01:58;;;;;;;113.35;51.78;;;;;;;;;;5037384;28;20025;-70
2022/01/01 04:04:26;;;;;;;133.73;56.83;;;;;;;;;;5037028;28;20498;-70
2022/01/01 04:06:57;;;;;;;167.02;68.15;;;;;;;;;;5037068;28;20040;-70
2022/01/01 04:09:27;;;;;;;212.65;85.18;;;;;;;;;;5020250;28;20033;-70
2022/01/01 04:11:55;;;;;;;179.13;73.22;;;;;;;;;;5036846;28;20104;-70
2022/01/01 04:14:23;;;;;;;148.13;59.65;;;;;;;;;;5036886;28;20072;-70
2022/01/01 04:16:52;;;;;;;129.88;56.45;;;;;;;;;;5020248;28;20079;-70
2022/01/01 04:19:31;;;;;;;133.13;61.88;;;;;;;;;;5036795;28;20034;-69
2022/01/01 04:21:59;;;;;;;138.65;59.97;;;;;;;;;;5036512;28;20163;-69
2022/01/01 04:24:27;;;;;;;140.30;61.50;;;;;;;;;;5020002;28;20025;-69
2022/01/01 04:26:54;;;;;;;132.25;62.50;;;;;;;;;;5038616;28;20512;-69
2022/01/01 04:29:23;;;;;;;133.82;64.93;;;;;;;;;;5038508;28;20029;-69
2022/01/01 04:31:51;;;;;;;132.85;63.10;;;;;;;;;;5038218;28;20405;-69
2022/01/01 04:34:19;;;;;;;124.68;58.90;;;;;;;;;;5038168;28;20108;-70
2022/01/01 04:36:52;;;;;;;110.18;50.72;;;;;;;;;;5038347;28;20013;-70
2022/01/01 04:39:20;;;;;;;110.05;50.72;;;;;;;;;;5037290;28;20069;-69
2022/01/01 04:41:47;;;;;;;101.00;48.38;;;;;;;;;;5037199;28;20030;-70
2022/01/01 04:44:15;;;;;;;83.55;40.65;;;;;;;;;;5037053;28;20034;-70
2022/01/01 04:46:42;;;;;;;81.57;40.13;;;;;;;;;;5037089;28;20025;-70
2022/01/01 04:49:09;;;;;;;87.10;42.65;;;;;;;;;;5037893;28;20045;-70
2022/01/01 04:51:35;;;;;;;81.65;38.17;;;;;;;;;;5036842;28;20033;-71
2022/01/01 04:54:03;;;;;;;68.88;33.58;;;;;;;;;;5038113;28;20025;-70
2022/01/01 04:56:33;;;;;;;60.08;29.10;;;;;;;;;;5038022;28;20026;-70
2022/01/01 04:59:03;;;;;;;61.28;27.17;;;;;;;;;;5037045;28;20363;-69
2022/01/01 05:01:30;;;;;;;50.83;20.67;;;;;;;;;;5037718;28;20148;-69
2022/01/01 05:03:59;;;;;;;35.25;13.20;;;;;;;;;;5036715;28;20095;-70
2022/01/01 05:06:27;;;;;;;18.70;8.65;;;;;;;;;;5037710;28;20365;-70
2022/01/01 05:08:54;;;;;;;15.40;7.13;;;;;;;;;;5037793;28;20025;-70
2022/01/01 05:11:22;;;;;;;11.95;4.75;;;;;;;;;;5037654;28;20100;-69
2022/01/01 05:13:50;;;;;;;12.25;5.47;;;;;;;;;;5036643;28;20022;-70
2022/01/01 05:16:19;;;;;;;14.30;5.35;;;;;;;;;;5036560;28;20021;-70
2022/01/01 05:18:47;;;;;;;19.85;6.90;;;;;;;;;;5037642;28;20028;-70
2022/01/01 05:21:15;;;;;;;18.90;7.95;;;;;;;;;;5036608;28;20033;-70
2022/01/01 05:23:42;;;;;;;27.65;11.32;;;;;;;;;;5037568;28;20056;-70
2022/01/01 05:26:10;;;;;;;30.23;12.25;;;;;;;;;;5037498;28;20041;-69
2022/01/01 05:28:40;;;;;;;21.23;8.35;;;;;;;;;;5037406;28;20057;-70
2022/01/01 05:31:10;;;;;;;16.25;6.88;;;;;;;;;;5036237;28;20025;-69
2022/01/01 05:33:38;;;;;;;18.55;7.40;;;;;;;;;;5037224;28;20021;-70
2022/01/01 05:36:05;;;;;;;13.50;5.28;;;;;;;;;;5036160;28;20158;-69
2022/01/01 05:38:33;;;;;;;13.48;5.93;;;;;;;;;;5036100;28;20017;-69
2022/01/01 05:41:04;;;;;;;13.52;4.57;;;;;;;;;;5037076;28;20033;-70
2022/01/01 05:43:34;;;;;;;15.13;4.65;;;;;;;;;;5037190;28;20114;-69
2022/01/01 05:46:02;;;;;;;11.20;4.40;;;;;;;;;;5037029;28;20025;-69
2022/01/01 05:48:28;;;;;;;12.23;3.65;;;;;;;;;;5035437;28;20040;-70
2022/01/01 05:50:56;;;;;;;11.63;3.72;;;;;;;;;;5036833;28;20034;-70
2022/01/01 05:53:23;;;;;;;12.52;3.95;;;;;;;;;;5036939;28;20025;-70
2022/01/01 05:55:52;;;;;;;17.05;5.10;;;;;;;;;;5036840;28;20026;-70
2022/01/01 05:58:20;;;;;;;18.35;6.30;;;;;;;;;;5036786;28;20021;-70
2022/01/01 06:00:47;;;;;;;17.38;6.57;;;;;;;;;;5036627;28;20036;-70
2022/01/01 06:03:17;;;;;;;18.17;6.95;;;;;;;;;;5035638;28;20426;-70
2022/01/01 06:05:51;;;;;;;17.75;5.80;;;;;;;;;;5036592;28;20041;-70
2022/01/01 06:08:19;;;;;;;13.32;5.45;;;;;;;;;;5036480;28;20030;-70
2022/01/01 06:10:47;;;;;;;14.93;4.82;;;;;;;;;;5036368;28;20032;-69
2022/01/01 06:13:14;;;;;;;18.77;6.28;;;;;;;;;;5036376;28;20021;-68
2022/01/01 06:15:43;;;;;;;12.65;5.55;;;;;;;;;;5036524;28;20381;-69
2022/01/01 06:18:11;;;;;;;11.07;4.65;;;;;;;;;;5035171;28;20026;-70
2022/01/01 06:20:39;;;;;;;13.07;5.18;;;;;;;;;;5035138;28;20021;-70
2022/01/01 06:23:07;;;;;;;10.63;4.50;;;;;;;;;;5035166;28;20426;-70
2022/01/01 06:25:35;;;;;;;14.65;5.43;;;;;;;;;;5035107;28;20080;-70
2022/01/01 06:28:03;;;;;;;10.50;4.65;;;;;;;;;;5035100;28;20029;-70
2022/01/01 06:30:38;;;;;;;14.55;5.57;;;;;;;;;;5036123;28;20033;-69
2022/01/01 06:33:15;;;;;;;14.30;4.60;;;;;;;;;;4994749;28;20045;-70
2022/01/01 06:35:44;;;;;;;40.22;19.27;;;;;;;;;;4994899;28;20105;-69
2022/01/01 06:38:12;;;;;;;18.20;5.80;;;;;;;;;;4994734;28;20038;-70
2022/01/01 06:40:40;;;;;;;16.52;5.90;;;;;;;;;;4978469;28;20036;-70
2022/01/01 06:43:08;;;;;;;19.88;8.90;;;;;;;;;;4994740;28;20463;-71
2022/01/01 06:45:36;;;;;;;29.02;18.40;;;;;;;;;;4994623;28;20104;-70
2022/01/01 06:48:04;;;;;;;32.72;16.40;;;;;;;;;;4994515;28;20455;-69
2022/01/01 06:50:32;;;;;;;36.20;17.65;;;;;;;;;;4994427;28;20054;-70
2022/01/01 06:52:59;;;;;;;42.75;18.23;;;;;;;;;;4978164;28;20274;-70
2022/01/01 06:55:27;;;;;;;31.90;13.85;;;;;;;;;;4978171;28;20030;-70
2022/01/01 06:57:54;;;;;;;33.15;14.07;;;;;;;;;;4994517;28;20043;-71
2022/01/01 07:00:22;;;;;;;38.67;18.63;;;;;;;;;;4994510;28;20105;-68
2022/01/01 07:02:50;;;;;;;38.47;19.63;;;;;;;;;;4996080;28;20419;-70
2022/01/01 07:05:17;;;;;;;27.88;13.32;;;;;;;;;;5035685;28;20026;-71
2022/01/01 07:07:45;;;;;;;64.25;31.52;;;;;;;;;;5035704;28;20079;-70
2022/01/01 07:10:13;;;;;;;195.27;99.03;;;;;;;;;;5035660;28;20186;-71
2022/01/01 07:12:50;;;;;;;86.47;42.05;;;;;;;;;;5035601;28;20026;-71
2022/01/01 07:15:18;;;;;;;84.75;42.85;;;;;;;;;;5034655;28;20017;-70
2022/01/01 07:17:45;;;;;;;75.30;38.50;;;;;;;;;;5035741;28;20406;-70
2022/01/01 07:20:13;;;;;;;80.50;40.47;;;;;;;;;;5035705;28;20029;-71
2022/01/01 07:22:41;;;;;;;95.88;47.83;;;;;;;;;;5037094;28;20022;-70
2022/01/01 07:25:09;;;;;;;88.70;41.55;;;;;;;;;;5039410;28;20368;-69
2022/01/01 07:27:40;;;;;;;75.18;37.63;;;;;;;;;;5038457;28;20053;-70
2022/01/01 07:30:09;;;;;;;68.57;34.08;;;;;;;;;;5038104;28;20376;-71
2022/01/01 07:32:40;;;;;;;80.65;41.85;;;;;;;;;;5038222;28;20414;-70
2022/01/01 07:35:09;;;;;;;87.35;44.33;;;;;;;;;;5039262;28;20018;-70
2022/01/01 07:37:36;;;;;;;95.38;50.95;;;;;;;;;;5039411;28;20033;-69
2022/01/01 07:40:05;;;;;;;71.00;33.65;;;;;;;;;;5038181;28;20026;-68
2022/01/01 07:42:32;;;;;;;70.07;36.33;;;;;;;;;;5039208;28;20080;-70
2022/01/01 07:45:01;;;;;;;70.65;33.45;;;;;;;;;;5038031;28;20112;-71
2022/01/01 07:47:31;;;;;;;67.53;32.67;;;;;;;;;;5037966;28;20022;-70
2022/01/01 07:49:57;;;;;;;73.10;38.30;;;;;;;;;;5038642;28;20053;-69
2022/01/01 07:52:24;;;;;;;78.50;34.80;;;;;;;;;;5038795;28;20036;-69
2022/01/01 07:54:51;;;;;;;55.60;26.10;;;;;;;;;;5038977;28;20115;-69
2022/01/01 07:57:19;;;;;;;64.63;31.48;;;;;;;;;;5037663;28;20422;-70
2022/01/01 07:59:46;;;;;;;41.15;18.60;;;;;;;;;;5037743;28;20481;-69
2022/01/01 08:02:14;;;;;;;44.15;21.85;;;;;;;;;;5038832;28;20034;-70
2022/01/01 08:04:42;;;;;;;42.75;22.42;;;;;;;;;;5037764;28;20426;-69
2022/01/01 08:07:09;;;;;;;41.35;19.90;;;;;;;;;;5038788;28;20385;-67
2022/01/01 08:09:38;;;;;;;33.45;14.35;;;;;;;;;;5037464;28;20025;-70
2022/01/01 08:12:07;;;;;;;27.60;11.35;;;;;;;;;;5038464;28;20026;-69
2022/01/01 08:14:34;;;;;;;24.48;9.98;;;;;;;;;;5038466;28;20053;-69
2022/01/01 08:17:03;;;;;;;17.00;6.90;;;;;;;;;;5038413;28;20025;-69
2022/01/01 08:19:31;;;;;;;19.48;7.97;;;;;;;;;;5038383;28;20028;-69
2022/01/01 08:21:59;;;;;;;21.88;8.40;;;;;;;;;;5037652;28;20102;-69
2022/01/01 08:24:27;;;;;;;26.63;11.02;;;;;;;;;;5038329;28;20033;-70
2022/01/01 08:26:55;;;;;;;22.70;9.35;;;;;;;;;;5038328;28;20029;-69
2022/01/01 08:29:23;;;;;;;30.30;11.18;;;;;;;;;;5038222;28;20505;-69
2022/01/01 08:31:51;;;;;;;18.20;6.97;;;;;;;;;;5038071;28;20033;-69
2022/01/01 08:34:19;;;;;;;19.55;7.18;;;;;;;;;;5035843;28;20100;-69
2022/01/01 08:36:47;;;;;;;16.35;6.65;;;;;;;;;;5037108;28;20027;-69
2022/01/01 08:39:15;;;;;;;18.70;7.10;;;;;;;;;;5038046;28;20026;-69
2022/01/01 08:41:44;;;;;;;24.02;9.27;;;;;;;;;;5036855;28;20021;-69
2022/01/01 08:44:11;;;;;;;42.08;13.13;;;;;;;;;;5037948;28;20053;-69
2022/01/01 08:46:39;;;;;;;22.00;9.00;;;;;;;;;;5037925;28;20454;-69
2022/01/01 08:49:05;;;;;;;19.13;8.20;;;;;;;;;;5037650;28;20101;-69
2022/01/01 08:51:34;;;;;;;16.23;7.03;;;;;;;;;;5037678;28;20033;-69
2022/01/01 08:54:03;;;;;;;25.73;9.05;;;;;;;;;;5037848;28;20029;-69
2022/01/01 08:56:32;;;;;;;33.15;10.35;;;;;;;;;;5037487;28;20025;-70
2022/01/01 08:59:00;;;;;;;18.23;6.60;;;;;;;;;;5037566;28;20026;-70
2022/01/01 09:01:32;;;;;;;19.70;6.07;;;;;;;;;;5037672;28;20096;-70
2022/01/01 09:03:59;;;;;;;18.00;5.22;;;;;;;;;;5037742;28;20096;-69
2022/01/01 09:06:27;;;;;;;20.77;6.07;;;;;;;;;;5037608;28;20108;-69
2022/01/01 09:08:54;;;;;;;20.17;5.75;;;;;;;;;;5036428;28;20048;-70
2022/01/01 09:11:22;;;;;;;15.70;5.22;;;;;;;;;;5037510;28;20075;-69
2022/01/01 09:13:50;;;;;;;26.42;6.07;;;;;;;;;;5036172;28;20109;-69
2022/01/01 09:16:19;;;;;;;17.05;6.25;;;;;;;;;;5037402;28;20025;-70
2022/01/01 09:18:48;;;;;;;18.38;6.82;;;;;;;;;;5037393;28;20136;-69
2022/01/01 09:21:17;;;;;;;21.70;6.80;;;;;;;;;;5037236;28;20479;-69
2022/01/01 09:23:44;;;;;;;19.30;6.57;;;;;;;;;;5037189;28;20025;-69
2022/01/01 09:26:12;;;;;;;21.13;5.75;;;;;;;;;;5037219;28;20104;-69
2022/01/01 09:28:40;;;;;;;24.08;6.28;;;;;;;;;;5036993;28;20021;-69
2022/01/01 09:31:10;;;;;;;27.55;6.75;;;;;;;;;;5035922;28;20382;-70
2022/01/01 09:33:37;;;;;;;27.45;7.13;;;;;;;;;;5037071;28;20033;-69
2022/01/01 09:36:05;;;;;;;42.22;8.65;;;;;;;;;;5035901;28;20426;-69
2022/01/01 09:38:33;;;;;;;35.72;7.63;;;;;;;;;;5037027;28;20022;-69
2022/01/01 09:41:01;;;;;;;26.75;6.40;;;;;;;;;;4979395;28;20045;-70
2022/01/01 09:43:30;;;;;;;21.25;6.65;;;;;;;;;;4979280;28;20039;-70
2022/01/01 09:45:58;;;;;;;20.08;5.78;;;;;;;;;;4995542;28;20427;-70
2022/01/01 09:48:25;;;;;;;21.75;6.40;;;;;;;;;;4995279;28;20154;-70
2022/01/01 09:50:54;;;;;;;19.17;5.25;;;;;;;;;;4995539;28;20165;-70
2022/01/01 09:53:26;;;;;;;20.23;5.55;;;;;;;;;;4978972;28;20109;-69
2022/01/01 09:55:54;;;;;;;19.10;5.30;;;;;;;;;;4995507;28;20041;-70
2022/01/01 09:58:26;;;;;;;14.20;4.68;;;;;;;;;;4979068;28;20018;-70
2022/01/01 10:00:54;;;;;;;17.95;4.20;;;;;;;;;;4979158;28;20030;-69
2022/01/01 10:03:35;;;;;;;14.85;4.47;;;;;;;;;;4978965;28;20423;-69
2022/01/01 10:06:04;;;;;;;14.02;4.32;;;;;;;;;;4995299;28;20106;-70
2022/01/01 10:08:32;;;;;;;14.15;4.57;;;;;;;;;;4979220;28;20371;-69
2022/01/01 10:11:00;;;;;;;14.20;4.45;;;;;;;;;;4995090;28;20038;-69
2022/01/01 10:13:34;;;;;;;16.75;4.47;;;;;;;;;;4995142;28;20023;-69
2022/01/01 10:16:03;;;;;;;13.90;3.83;;;;;;;;;;4995190;28;20038;-69
2022/01/01 10:18:31;;;;;;;16.90;4.60;;;;;;;;;;4995031;28;20038;-69
2022/01/01 10:21:28;;;;;;;19.25;4.55;;;;;;;;;;4978828;28;20058;-70
2022/01/01 10:23:57;;;;;;;23.75;5.03;;;;;;;;;;4999648;28;20381;-70
2022/01/01 10:29:26;;;;;;;19.25;6.10;;;;;;;;;;5036355;28;20079;-70
2022/01/01 10:32:02;;;;;;;33.03;7.88;;;;;;;;;;5036075;28;20029;-70
2022/01/01 10:34:35;;;;;;;22.13;6.85;;;;;;;;;;5036103;28;20025;-70
2022/01/01 10:37:06;;;;;;;24.52;7.32;;;;;;;;;;5035072;28;20017;-70
2022/01/01 10:39:47;;;;;;;34.78;10.57;;;;;;;;;;5036075;28;20032;-70
2022/01/01 10:42:15;;;;;;;42.45;15.20;;;;;;;;;;5035899;28;20028;-70
2022/01/01 10:44:47;;;;;;;49.13;18.90;;;;;;;;;;5035975;28;20091;-71
2022/01/01 10:47:18;;;;;;;67.22;28.90;;;;;;;;;;5035880;28;20026;-71
2022/01/01 10:52:32;;;;;;;72.82;36.10;;;;;;;;;;5035635;28;20041;-69
2022/01/01 10:55:06;;;;;;;69.97;34.45;;;;;;;;;;5036032;28;20292;-69
2022/01/01 10:57:36;;;;;;;79.70;39.47;;;;;;;;;;5035130;28;20021;-69
2022/01/01 11:00:11;;;;;;;79.13;38.25;;;;;;;;;;5035704;28;20318;-70
2022/01/01 11:02:40;;;;;;;80.15;37.50;;;;;;;;;;5035734;28;20021;-70
2022/01/01 11:05:08;;;;;;;79.53;37.10;;;;;;;;;;5034604;28;20425;-70
2022/01/01 11:07:36;;;;;;;98.03;45.72;;;;;;;;;;5034622;28;20057;-70
2022/01/01 11:10:07;;;;;;;122.57;48.58;;;;;;;;;;5034715;28;20026;-70
2022/01/01 11:12:34;;;;;;;131.55;55.58;;;;;;;;;;5035666;28;20037;-70
2022/01/01 11:15:03;;;;;;;121.57;54.83;;;;;;;;;;5035714;28;20415;-69
2022/01/01 11:17:32;;;;;;;177.77;79.90;;;;;;;;;;5035584;28;20314;-69
2022/01/01 11:20:02;;;;;;;182.07;83.50;;;;;;;;;;5035667;28;20021;-70
2022/01/01 11:22:29;;;;;;;180.40;85.50;;;;;;;;;;5035573;28;20029;-70
2022/01/01 11:24:57;;;;;;;169.13;78.35;;;;;;;;;;5035599;28;20025;-69
2022/01/01 11:27:26;;;;;;;168.00;76.80;;;;;;;;;;5034089;28;20037;-69
2022/01/01 11:29:54;;;;;;;160.68;72.38;;;;;;;;;;5035451;28;20049;-69
2022/01/01 11:32:23;;;;;;;164.05;74.03;;;;;;;;;;5034265;28;20376;-69
2022/01/01 11:34:54;;;;;;;167.43;74.50;;;;;;;;;;5034360;28;20033;-69
2022/01/01 11:37:28;;;;;;;199.85;92.75;;;;;;;;;;5035492;28;20029;-69
2022/01/01 11:39:56;;;;;;;239.82;109.65;;;;;;;;;;5035369;28;20067;-69
2022/01/01 11:42:24;;;;;;;274.73;127.90;;;;;;;;;;5035351;28;20021;-69
2022/01/01 11:44:54;;;;;;;270.88;129.77;;;;;;;;;;5035337;28;20029;-70
2022/01/01 11:47:24;;;;;;;298.45;142.50;;;;;;;;;;5035282;28;20449;-70
2022/01/01 11:49:52;;;;;;;319.40;146.88;;;;;;;;;;5035222;28;20065;-69
2022/01/01 11:52:37;;;;;;;298.75;140.48;;;;;;;;;;5035399;28;20030;-69
2022/01/01 11:55:10;;;;;;;301.27;142.65;;;;;;;;;;5035643;28;20038;-69
2022/01/01 11:57:37;;;;;;;330.92;156.27;;;;;;;;;;5034281;28;20541;-70
2022/01/01 12:00:13;;;;;;;322.38;151.90;;;;;;;;;;5034231;28;20136;-70
2022/01/01 12:02:43;;;;;;;334.80;155.27;;;;;;;;;;5035414;28;20035;-70
2022/01/01 12:05:21;;;;;;;416.90;205.07;;;;;;;;;;5035351;28;20032;-69
2022/01/01 12:07:56;;;;;;;440.77;214.40;;;;;;;;;;5036232;28;20323;-70
2022/01/01 12:10:28;;;;;;;477.48;231.25;;;;;;;;;;5038863;28;20094;-70
2022/01/01 12:12:59;;;;;;;496.25;238.48;;;;;;;;;;5038726;28;20032;-70
2022/01/01 12:15:39;;;;;;;493.17;236.93;;;;;;;;;;5038765;28;20039;-70
2022/01/01 12:18:16;;;;;;;512.55;252.48;;;;;;;;;;5037508;28;20017;-70
2022/01/01 12:21:08;;;;;;;555.33;260.70;;;;;;;;;;5038672;28;20037;-69
2022/01/01 12:23:37;;;;;;;632.00;296.98;;;;;;;;;;4958524;29;20038;-70
2022/01/01 12:26:11;;;;;;;638.35;294.10;;;;;;;;;;4942176;29;20118;-69
2022/01/01 12:28:39;;;;;;;689.80;299.60;;;;;;;;;;4958280;29;20032;-69
2022/01/01 12:31:14;;;;;;;705.95;312.20;;;;;;;;;;4958185;29;20138;-69
2022/01/01 12:33:54;;;;;;;661.92;281.15;;;;;;;;;;4942213;29;21128;-70
2022/01/01 12:36:23;;;;;;;634.55;267.35;;;;;;;;;;4942202;29;20340;-70
2022/01/01 12:38:56;;;;;;;644.47;272.92;;;;;;;;;;4958424;29;20031;-70
2022/01/01 12:41:39;;;;;;;637.13;269.52;;;;;;;;;;4958314;29;20035;-70
2022/01/01 12:44:08;;;;;;;685.47;301.35;;;;;;;;;;4958263;29;20474;-70
2022/01/01 12:46:45;;;;;;;686.58;303.60;;;;;;;;;;4958221;29;20047;-69
2022/01/01 12:49:12;;;;;;;663.75;291.10;;;;;;;;;;4958035;29;20332;-70
2022/01/01 12:51:40;;;;;;;652.00;288.45;;;;;;;;;;4958019;29;20031;-70
2022/01/01 12:54:13;;;;;;;636.10;276.45;;;;;;;;;;4957661;29;20067;-70
2022/01/01 12:56:41;;;;;;;625.08;282.17;;;;;;;;;;4958004;29;20098;-69
2022/01/01 12:59:10;;;;;;;574.03;254.77;;;;;;;;;;4957943;28;20389;-69
2022/01/01 13:01:42;;;;;;;574.55;256.90;;;;;;;;;;5036830;28;20025;-70
2022/01/01 13:04:19;;;;;;;560.03;261.00;;;;;;;;;;5037895;28;20422;-70
2022/01/01 13:07:01;;;;;;;571.35;265.63;;;;;;;;;;5037799;28;20029;-70
2022/01/01 13:09:32;;;;;;;552.05;257.63;;;;;;;;;;5037656;28;20377;-71
2022/01/01 13:12:04;;;;;;;564.25;258.70;;;;;;;;;;5037645;28;20049;-70
2022/01/01 13:14:35;;;;;;;563.42;258.38;;;;;;;;;;5036596;28;20022;-69
2022/01/01 13:17:03;;;;;;;517.50;248.15;;;;;;;;;;5037610;28;20321;-69
2022/01/01 13:19:33;;;;;;;479.48;224.60;;;;;;;;;;5037000;28;20029;-69
2022/01/01 13:22:00;;;;;;;482.05;230.32;;;;;;;;;;5037612;28;20036;-69
2022/01/01 13:24:32;;;;;;;450.35;214.38;;;;;;;;;;5037389;28;20032;-69
2022/01/01 13:27:03;;;;;;;445.63;212.63;;;;;;;;;;5037434;28;20104;-69
2022/01/01 13:29:31;;;;;;;445.10;209.32;;;;;;;;;;5037451;28;20108;-70
2022/01/01 13:31:59;;;;;;;390.00;189.50;;;;;;;;;;5037088;28;20029;-70
2022/01/01 13:34:30;;;;;;;404.95;191.68;;;;;;;;;;5037498;28;20060;-69
2022/01/01 13:37:04;;;;;;;411.08;197.13;;;;;;;;;;5037231;28;20025;-69
2022/01/01 13:39:32;;;;;;;375.90;183.77;;;;;;;;;;5036004;28;20025;-69
2022/01/01 13:42:00;;;;;;;369.63;173.20;;;;;;;;;;5036017;28;20053;-69
2022/01/01 13:44:46;;;;;;;394.10;205.43;;;;;;;;;;5037085;28;20465;-69
2022/01/01 13:47:29;;;;;;;384.63;200.25;;;;;;;;;;5037106;28;20059;-69
2022/01/01 13:49:58;;;;;;;439.42;211.60;;;;;;;;;;5035683;28;20048;-69
2022/01/01 13:52:24;;;;;;;433.50;202.38;;;;;;;;;;5036618;28;20112;-69
2022/01/01 13:54:57;;;;;;;481.17;221.52;;;;;;;;;;5036862;28;20053;-70
2022/01/01 13:57:27;;;;;;;562.15;260.85;;;;;;;;;;5036398;28;20056;-70
2022/01/01 13:59:56;;;;;;;571.08;272.67;;;;;;;;;;5036657;28;20317;-70
2022/01/01 14:02:24;;;;;;;535.67;254.85;;;;;;;;;;5036667;28;20021;-69
2022/01/01 14:04:54;;;;;;;491.38;236.32;;;;;;;;;;5036625;28;20033;-69
2022/01/01 14:07:21;;;;;;;438.83;212.25;;;;;;;;;;5036781;28;20033;-69
2022/01/01 14:10:06;;;;;;;425.33;206.82;;;;;;;;;;5036696;28;20350;-68
2022/01/01 14:12:35;;;;;;;411.48;203.88;;;;;;;;;;5036506;28;20030;-69
2022/01/01 14:15:10;;;;;;;362.10;182.27;;;;;;;;;;5036556;28;20021;-69
2022/01/01 14:17:56;;;;;;;318.08;151.85;;;;;;;;;;5036487;28;20021;-69
2022/01/01 14:20:30;;;;;;;320.70;154.45;;;;;;;;;;5036536;28;20052;-69
2022/01/01 14:22:58;;;;;;;347.67;163.07;;;;;;;;;;5036417;28;20084;-69
2022/01/01 14:25:27;;;;;;;358.25;164.98;;;;;;;;;;5035298;28;20030;-69
2022/01/01 14:27:59;;;;;;;343.38;164.18;;;;;;;;;;5036378;28;20032;-69
2022/01/01 14:30:27;;;;;;;379.10;183.13;;;;;;;;;;5036233;28;20100;-69
2022/01/01 14:32:55;;;;;;;357.10;175.02;;;;;;;;;;5034573;28;20040;-69
2022/01/01 14:35:23;;;;;;;392.77;191.23;;;;;;;;;;5035257;28;20044;-70
2022/01/01 14:37:50;;;;;;;372.10;181.85;;;;;;;;;;5036358;28;20414;-70
2022/01/01 14:40:18;;;;;;;338.85;163.65;;;;;;;;;;5035105;28;20063;-70